Time;durP1;ratioP1;P1;durP2;ratioP2;P2;SDS_P1;SDS_P2;PMS_P1;PMS_P2;Temp;Humidity;BMP_temperature;BMP_pressure;BME280_temperature;BME280_humidity;BME280_pressure;Samples;Min_cycle;Max_cycle;Signal;HPM_P1;HPM_P2
2021/04/18 00:00:26;;;;;;;10.23;5.70;;;;;;;;;;5072124;28;20791;-62
2021/04/18 00:02:53;;;;;;;12.10;5.83;;;;;;;;;;5072500;28;20497;-59
2021/04/18 00:05:21;;;;;;;16.50;8.93;;;;;;;;;;5072271;28;20471;-60
2021/04/18 00:07:47;;;;;;;15.77;7.50;;;;;;;;;;5071197;28;20451;-60
2021/04/18 00:10:14;;;;;;;15.47;8.13;;;;;;;;;;5071712;28;20509;-60
2021/04/18 00:12:40;;;;;;;12.47;6.43;;;;;;;;;;5071900;28;20447;-62
2021/04/18 00:15:08;;;;;;;8.80;5.50;;;;;;;;;;5071607;28;20529;-62
2021/04/18 00:17:34;;;;;;;14.07;7.27;;;;;;;;;;5070625;28;20451;-62
2021/04/18 00:20:02;;;;;;;9.80;6.40;;;;;;;;;;5071730;28;20443;-60
2021/04/18 00:22:28;;;;;;;11.67;5.10;;;;;;;;;;5072020;28;20504;-62
2021/04/18 00:24:55;;;;;;;11.60;5.57;;;;;;;;;;5071499;28;20475;-61
2021/04/18 00:27:21;;;;;;;10.43;5.20;;;;;;;;;;5071333;28;20447;-61
2021/04/18 00:29:48;;;;;;;9.60;5.93;;;;;;;;;;5070824;28;20491;-61
2021/04/18 00:32:14;;;;;;;12.03;5.00;;;;;;;;;;5071005;28;20459;-62
2021/04/18 00:34:41;;;;;;;13.57;5.87;;;;;;;;;;5071814;28;20470;-62
2021/04/18 00:37:08;;;;;;;10.33;6.03;;;;;;;;;;5070227;28;20796;-62
2021/04/18 00:39:35;;;;;;;13.47;5.40;;;;;;;;;;5071605;28;20930;-62
2021/04/18 00:42:02;;;;;;;13.37;5.50;;;;;;;;;;5070861;28;20455;-59
2021/04/18 00:44:28;;;;;;;11.60;5.10;;;;;;;;;;5072808;28;20475;-60
2021/04/18 00:46:55;;;;;;;11.83;5.63;;;;;;;;;;5079566;28;20874;-60
2021/04/18 00:49:21;;;;;;;13.77;6.13;;;;;;;;;;5074719;28;20493;-60
2021/04/18 00:51:48;;;;;;;9.93;5.57;;;;;;;;;;5070448;28;20439;-58
2021/04/18 00:54:15;;;;;;;9.13;5.53;;;;;;;;;;5071399;28;20485;-60
2021/04/18 00:56:42;;;;;;;11.43;5.43;;;;;;;;;;5071508;28;20508;-60
2021/04/18 00:59:09;;;;;;;9.17;5.27;;;;;;;;;;5070952;28;20450;-58
2021/04/18 01:01:35;;;;;;;10.83;6.00;;;;;;;;;;5070970;28;20460;-58
2021/04/18 01:04:02;;;;;;;9.83;5.43;;;;;;;;;;5071273;28;20474;-60
2021/04/18 01:06:28;;;;;;;12.20;5.60;;;;;;;;;;5070814;28;20455;-61
2021/04/18 01:08:55;;;;;;;9.47;6.33;;;;;;;;;;5071068;28;20478;-59
2021/04/18 01:11:22;;;;;;;11.13;5.50;;;;;;;;;;5071220;28;20451;-59
2021/04/18 01:13:49;;;;;;;14.40;5.80;;;;;;;;;;5071262;28;20974;-60
2021/04/18 01:16:16;;;;;;;12.13;5.67;;;;;;;;;;5070991;28;20451;-59
2021/04/18 01:18:42;;;;;;;13.10;5.80;;;;;;;;;;5070637;28;20480;-61
2021/04/18 01:21:10;;;;;;;11.53;6.83;;;;;;;;;;5071293;28;20455;-61
2021/04/18 01:23:37;;;;;;;11.03;6.17;;;;;;;;;;5070848;28;20474;-60
2021/04/18 01:26:04;;;;;;;12.07;6.83;;;;;;;;;;5070490;28;20459;-61
2021/04/18 01:28:32;;;;;;;17.07;6.43;;;;;;;;;;5070540;28;20510;-58
2021/04/18 01:30:59;;;;;;;16.27;6.30;;;;;;;;;;5071246;28;20447;-60
2021/04/18 01:33:25;;;;;;;10.30;5.53;;;;;;;;;;5071019;28;20478;-59
2021/04/18 01:35:52;;;;;;;11.30;5.77;;;;;;;;;;5070818;28;20458;-61
2021/04/18 01:38:20;;;;;;;10.67;6.57;;;;;;;;;;5071020;28;20462;-61
2021/04/18 01:40:46;;;;;;;9.90;6.23;;;;;;;;;;5070486;28;20455;-60
2021/04/18 01:43:14;;;;;;;10.93;6.00;;;;;;;;;;5071044;28;20462;-61
2021/04/18 01:45:41;;;;;;;12.53;6.27;;;;;;;;;;5070561;28;20443;-60
2021/04/18 01:48:09;;;;;;;14.23;6.03;;;;;;;;;;5069722;28;20474;-60
2021/04/18 01:50:39;;;;;;;18.13;6.53;;;;;;;;;;5070755;28;20451;-61
2021/04/18 01:53:06;;;;;;;14.67;6.70;;;;;;;;;;5074563;28;20453;-60
2021/04/18 01:55:33;;;;;;;13.20;6.17;;;;;;;;;;5074588;28;20451;-60
2021/04/18 01:57:59;;;;;;;12.63;6.30;;;;;;;;;;5073263;28;20954;-60
2021/04/18 02:00:26;;;;;;;12.73;6.20;;;;;;;;;;5074504;28;20458;-58
2021/04/18 02:02:53;;;;;;;7.70;5.63;;;;;;;;;;5074296;28;20451;-60
2021/04/18 02:05:20;;;;;;;10.10;6.10;;;;;;;;;;5074566;28;20467;-60
2021/04/18 02:07:46;;;;;;;12.63;5.87;;;;;;;;;;5072886;28;20558;-60
2021/04/18 02:10:14;;;;;;;12.07;6.87;;;;;;;;;;5074872;28;20513;-60
2021/04/18 02:12:42;;;;;;;9.27;6.53;;;;;;;;;;5074501;28;20451;-60
2021/04/18 02:15:09;;;;;;;10.90;6.27;;;;;;;;;;5073749;28;20809;-59
2021/04/18 02:17:36;;;;;;;11.90;6.73;;;;;;;;;;5073811;28;20832;-60
2021/04/18 02:20:03;;;;;;;9.63;6.60;;;;;;;;;;5073570;28;20451;-60
2021/04/18 02:22:29;;;;;;;10.30;6.70;;;;;;;;;;5073913;28;20447;-58
2021/04/18 02:24:56;;;;;;;12.90;5.80;;;;;;;;;;5073979;28;20479;-58
2021/04/18 02:27:25;;;;;;;11.90;6.53;;;;;;;;;;5073796;28;20455;-60
2021/04/18 02:29:52;;;;;;;11.67;6.43;;;;;;;;;;5073470;28;20491;-61
2021/04/18 02:32:19;;;;;;;14.03;6.97;;;;;;;;;;5072410;28;20951;-59
2021/04/18 02:34:45;;;;;;;10.83;6.40;;;;;;;;;;5071694;28;20474;-58
2021/04/18 02:37:12;;;;;;;12.00;5.90;;;;;;;;;;5071148;28;20810;-60
2021/04/18 02:39:38;;;;;;;8.97;5.90;;;;;;;;;;5073664;28;20443;-60
2021/04/18 02:42:05;;;;;;;12.30;6.67;;;;;;;;;;5073141;28;20508;-58
2021/04/18 02:44:33;;;;;;;10.53;6.53;;;;;;;;;;5073805;28;20520;-59
2021/04/18 02:47:00;;;;;;;9.20;6.17;;;;;;;;;;5072231;28;20462;-60
2021/04/18 02:49:27;;;;;;;10.00;6.40;;;;;;;;;;5071258;28;20494;-58
2021/04/18 02:51:53;;;;;;;10.33;6.13;;;;;;;;;;5071857;28;20466;-57
2021/04/18 02:54:20;;;;;;;13.97;6.57;;;;;;;;;;5073376;28;20474;-59
2021/04/18 02:56:46;;;;;;;10.13;6.03;;;;;;;;;;5073178;28;20446;-60
2021/04/18 02:59:13;;;;;;;11.23;6.00;;;;;;;;;;5073008;28;20447;-60
2021/04/18 03:01:39;;;;;;;10.93;6.23;;;;;;;;;;5072485;28;20826;-59
2021/04/18 03:04:07;;;;;;;10.50;6.00;;;;;;;;;;5072950;28;20831;-61
2021/04/18 03:06:33;;;;;;;9.73;5.60;;;;;;;;;;5072805;28;20450;-60
2021/04/18 03:09:00;;;;;;;15.47;6.77;;;;;;;;;;5073068;28;20486;-58
2021/04/18 03:11:27;;;;;;;12.03;6.20;;;;;;;;;;5073028;28;20444;-61
2021/04/18 03:13:53;;;;;;;12.53;6.73;;;;;;;;;;5072857;28;20525;-60
2021/04/18 03:16:20;;;;;;;10.30;6.37;;;;;;;;;;5072286;28;20451;-59
2021/04/18 03:18:46;;;;;;;11.53;6.40;;;;;;;;;;5072222;28;20440;-60
2021/04/18 03:21:14;;;;;;;10.83;7.20;;;;;;;;;;5072711;28;20815;-60
2021/04/18 03:23:40;;;;;;;13.07;6.03;;;;;;;;;;5072602;28;20463;-61
2021/04/18 03:26:07;;;;;;;12.70;6.03;;;;;;;;;;5072671;28;20451;-60
2021/04/18 03:28:33;;;;;;;11.13;5.80;;;;;;;;;;5072771;28;20795;-59
2021/04/18 03:31:00;;;;;;;11.83;6.47;;;;;;;;;;5072844;28;20443;-60
2021/04/18 03:33:28;;;;;;;11.97;6.60;;;;;;;;;;5072357;28;20479;-60
2021/04/18 03:35:54;;;;;;;11.80;6.23;;;;;;;;;;5072822;28;20447;-61
2021/04/18 03:38:21;;;;;;;11.83;6.30;;;;;;;;;;5071525;28;20435;-59
2021/04/18 03:40:48;;;;;;;13.23;6.50;;;;;;;;;;5072384;28;20455;-59
2021/04/18 03:43:15;;;;;;;11.57;7.10;;;;;;;;;;5072385;28;20439;-60
2021/04/18 03:45:41;;;;;;;12.53;7.00;;;;;;;;;;5072201;28;20833;-58
2021/04/18 03:48:08;;;;;;;14.30;6.83;;;;;;;;;;5071104;28;20450;-59
2021/04/18 03:50:35;;;;;;;12.93;7.10;;;;;;;;;;5071967;28;20470;-60
2021/04/18 03:53:01;;;;;;;12.83;7.00;;;;;;;;;;5072343;28;20816;-58
2021/04/18 03:55:29;;;;;;;11.33;6.97;;;;;;;;;;5072076;28;20498;-60
2021/04/18 03:57:55;;;;;;;13.63;6.80;;;;;;;;;;5071825;28;20500;-61
2021/04/18 04:00:22;;;;;;;11.10;6.90;;;;;;;;;;5072002;28;20451;-61
2021/04/18 04:02:49;;;;;;;13.93;6.43;;;;;;;;;;5072385;28;20451;-61
2021/04/18 04:05:16;;;;;;;11.60;6.33;;;;;;;;;;5072149;28;20467;-59
2021/04/18 04:07:42;;;;;;;14.47;6.90;;;;;;;;;;5070715;28;20451;-61
2021/04/18 04:10:09;;;;;;;9.70;6.40;;;;;;;;;;5071799;28;21003;-58
2021/04/18 04:12:37;;;;;;;12.97;7.20;;;;;;;;;;5071748;28;20451;-59
2021/04/18 04:15:03;;;;;;;12.87;7.20;;;;;;;;;;5071218;28;20484;-61
2021/04/18 04:17:30;;;;;;;12.67;7.37;;;;;;;;;;5071679;28;20459;-59
2021/04/18 04:19:56;;;;;;;13.13;6.73;;;;;;;;;;5071279;28;21057;-61
2021/04/18 04:22:23;;;;;;;15.00;6.77;;;;;;;;;;5071146;28;20452;-61
2021/04/18 04:24:52;;;;;;;12.83;6.47;;;;;;;;;;5070642;28;20467;-60
2021/04/18 04:27:19;;;;;;;14.37;7.50;;;;;;;;;;5070595;28;20454;-61
2021/04/18 04:29:46;;;;;;;11.23;7.30;;;;;;;;;;5070789;28;20600;-60
2021/04/18 04:32:13;;;;;;;12.10;6.90;;;;;;;;;;5071564;28;20262;-61
2021/04/18 04:34:40;;;;;;;12.23;7.27;;;;;;;;;;5071215;28;20475;-64
2021/04/18 04:37:07;;;;;;;12.57;7.30;;;;;;;;;;5070189;28;20500;-62
2021/04/18 04:39:33;;;;;;;15.40;7.27;;;;;;;;;;5072379;28;20628;-61
2021/04/18 04:42:01;;;;;;;16.47;7.87;;;;;;;;;;5072042;28;20454;-61
2021/04/18 04:44:29;;;;;;;18.77;8.00;;;;;;;;;;5072116;28;20493;-61
2021/04/18 04:46:56;;;;;;;13.40;8.07;;;;;;;;;;5070057;28;20496;-60
2021/04/18 04:49:23;;;;;;;14.87;8.47;;;;;;;;;;5070890;28;20574;-60
2021/04/18 04:51:50;;;;;;;13.03;7.90;;;;;;;;;;5071222;28;20460;-58
2021/04/18 04:54:16;;;;;;;12.17;7.90;;;;;;;;;;5071282;28;20470;-60
2021/04/18 04:56:43;;;;;;;13.23;8.73;;;;;;;;;;5069980;28;20958;-61
2021/04/18 04:59:09;;;;;;;17.17;9.93;;;;;;;;;;5070974;28;21018;-60
2021/04/18 05:01:36;;;;;;;18.13;8.83;;;;;;;;;;5071428;28;20455;-61
2021/04/18 05:04:03;;;;;;;16.17;9.27;;;;;;;;;;5071936;28;20601;-61
2021/04/18 05:06:30;;;;;;;12.17;8.30;;;;;;;;;;5071849;28;20450;-60
2021/04/18 05:08:56;;;;;;;15.37;9.33;;;;;;;;;;5071670;28;20232;-59
2021/04/18 05:11:23;;;;;;;14.17;9.13;;;;;;;;;;5071440;28;20458;-60
2021/04/18 05:13:49;;;;;;;16.43;9.30;;;;;;;;;;5071490;28;20725;-61
2021/04/18 05:16:16;;;;;;;15.80;9.20;;;;;;;;;;5071458;28;20458;-62
2021/04/18 05:18:43;;;;;;;17.50;9.20;;;;;;;;;;5071305;28;20451;-61
2021/04/18 05:21:11;;;;;;;14.43;9.00;;;;;;;;;;5071859;28;20447;-61
2021/04/18 05:23:37;;;;;;;14.67;9.13;;;;;;;;;;5071962;28;20471;-59
2021/04/18 05:26:04;;;;;;;13.93;8.60;;;;;;;;;;5073007;28;20454;-61
2021/04/18 05:28:30;;;;;;;16.10;8.97;;;;;;;;;;5075482;28;20451;-60
2021/04/18 05:30:57;;;;;;;20.83;9.40;;;;;;;;;;5075336;28;20447;-61
2021/04/18 05:33:24;;;;;;;14.03;9.23;;;;;;;;;;5075717;28;20451;-60
2021/04/18 05:35:50;;;;;;;14.63;7.77;;;;;;;;;;5074967;28;20455;-58
2021/04/18 05:38:18;;;;;;;16.17;9.47;;;;;;;;;;5073781;28;20465;-57
2021/04/18 05:40:44;;;;;;;13.07;8.83;;;;;;;;;;5074920;28;20831;-61
2021/04/18 05:43:11;;;;;;;14.27;9.47;;;;;;;;;;5074665;28;20458;-58
2021/04/18 05:45:38;;;;;;;15.07;8.67;;;;;;;;;;5074890;28;20245;-59
2021/04/18 05:48:05;;;;;;;16.53;8.77;;;;;;;;;;5074364;28;20447;-59
2021/04/18 05:50:32;;;;;;;17.13;8.37;;;;;;;;;;5073904;28;20608;-58
2021/04/18 05:52:58;;;;;;;15.40;8.63;;;;;;;;;;5074352;28;20216;-60
2021/04/18 05:55:26;;;;;;;15.23;9.50;;;;;;;;;;5074812;28;20509;-62
2021/04/18 05:57:52;;;;;;;16.17;9.33;;;;;;;;;;5074230;28;20454;-60
2021/04/18 06:00:19;;;;;;;15.93;9.27;;;;;;;;;;5073796;28;20247;-61
2021/04/18 06:02:46;;;;;;;17.50;10.10;;;;;;;;;;5074771;28;20447;-60
2021/04/18 06:05:13;;;;;;;13.40;8.80;;;;;;;;;;5074105;28;20463;-62
2021/04/18 06:07:39;;;;;;;17.70;9.67;;;;;;;;;;5074328;28;20533;-60
2021/04/18 06:10:06;;;;;;;15.90;8.33;;;;;;;;;;5074163;28;20479;-62
2021/04/18 06:12:34;;;;;;;15.83;9.67;;;;;;;;;;5074723;28;20262;-60
2021/04/18 06:15:00;;;;;;;10.53;7.83;;;;;;;;;;5074052;28;20844;-60
2021/04/18 06:17:27;;;;;;;15.03;9.47;;;;;;;;;;5073434;28;20553;-60
2021/04/18 06:19:53;;;;;;;14.27;8.73;;;;;;;;;;5074073;28;20207;-62
2021/04/18 06:22:20;;;;;;;13.40;9.10;;;;;;;;;;5073281;28;20208;-60
2021/04/18 06:24:46;;;;;;;14.37;9.30;;;;;;;;;;5074056;28;20276;-60
2021/04/18 06:27:13;;;;;;;18.33;9.00;;;;;;;;;;5072392;28;20206;-59
2021/04/18 06:29:41;;;;;;;17.97;9.67;;;;;;;;;;5073218;28;20226;-60
2021/04/18 06:32:08;;;;;;;14.20;9.77;;;;;;;;;;5073621;28;20246;-60
2021/04/18 06:34:35;;;;;;;14.53;9.20;;;;;;;;;;5072809;28;20740;-62
2021/04/18 06:37:02;;;;;;;13.83;9.53;;;;;;;;;;5073300;28;20218;-62
2021/04/18 06:39:28;;;;;;;15.33;10.10;;;;;;;;;;5074142;28;20225;-60
2021/04/18 06:41:56;;;;;;;20.57;10.23;;;;;;;;;;5073685;28;20267;-61
2021/04/18 06:44:23;;;;;;;18.83;11.07;;;;;;;;;;5073151;28;20275;-62
2021/04/18 06:46:50;;;;;;;17.83;11.77;;;;;;;;;;5072607;28;20202;-59
2021/04/18 06:49:17;;;;;;;19.03;9.83;;;;;;;;;;5073026;28;20228;-58
2021/04/18 06:51:43;;;;;;;18.47;10.57;;;;;;;;;;5073651;28;20210;-57
2021/04/18 06:54:11;;;;;;;13.27;9.13;;;;;;;;;;5073164;28;20227;-60
2021/04/18 06:56:37;;;;;;;14.67;9.87;;;;;;;;;;5072778;28;20220;-61
2021/04/18 06:59:04;;;;;;;15.40;8.83;;;;;;;;;;5072832;28;20232;-59
2021/04/18 07:01:31;;;;;;;14.60;9.70;;;;;;;;;;5072856;28;20202;-58
2021/04/18 07:04:14;;;;;;;14.47;8.80;;;;;;;;;;5072877;28;20729;-60
2021/04/18 07:06:42;;;;;;;16.03;9.13;;;;;;;;;;5072848;28;20211;-58
2021/04/18 07:09:09;;;;;;;13.77;9.57;;;;;;;;;;5073197;28;20237;-60
2021/04/18 07:11:49;;;;;;;14.10;9.30;;;;;;;;;;5073065;28;20203;-59
2021/04/18 07:14:25;;;;;;;18.37;9.80;;;;;;;;;;5072773;28;20239;-61
2021/04/18 07:16:52;;;;;;;17.73;10.07;;;;;;;;;;5071912;28;20205;-58
2021/04/18 07:19:21;;;;;;;18.13;9.33;;;;;;;;;;5073090;28;20293;-56
2021/04/18 07:21:49;;;;;;;13.53;9.10;;;;;;;;;;5072936;28;20217;-61
2021/04/18 07:24:16;;;;;;;17.13;11.43;;;;;;;;;;5072719;28;20231;-60
2021/04/18 07:26:43;;;;;;;16.27;11.47;;;;;;;;;;5071891;28;20202;-60
2021/04/18 07:29:14;;;;;;;15.40;9.77;;;;;;;;;;5072480;28;20238;-60
2021/04/18 07:31:41;;;;;;;15.63;10.43;;;;;;;;;;5072965;28;20430;-59
2021/04/18 07:34:08;;;;;;;20.67;11.53;;;;;;;;;;5072396;28;20226;-61
2021/04/18 07:36:36;;;;;;;19.83;10.10;;;;;;;;;;5072456;28;20226;-60
2021/04/18 07:39:05;;;;;;;15.63;9.83;;;;;;;;;;5072561;28;20214;-61
2021/04/18 07:41:31;;;;;;;15.57;9.10;;;;;;;;;;5072848;28;20231;-61
2021/04/18 07:43:58;;;;;;;18.37;10.57;;;;;;;;;;5072979;28;20228;-61
2021/04/18 07:46:24;;;;;;;17.30;9.50;;;;;;;;;;5071696;28;20208;-62
2021/04/18 07:48:51;;;;;;;17.00;10.33;;;;;;;;;;5071476;28;20595;-61
2021/04/18 07:51:18;;;;;;;15.07;9.60;;;;;;;;;;5072226;28;20205;-62
2021/04/18 07:53:46;;;;;;;15.40;9.13;;;;;;;;;;5072180;28;20229;-62
2021/04/18 07:56:13;;;;;;;18.97;11.50;;;;;;;;;;5073130;28;20566;-61
2021/04/18 07:58:40;;;;;;;18.27;10.33;;;;;;;;;;5072802;28;20205;-62
2021/04/18 08:01:06;;;;;;;17.30;9.53;;;;;;;;;;5073046;28;20204;-61
2021/04/18 08:03:33;;;;;;;18.33;10.53;;;;;;;;;;5072648;28;20225;-61
2021/04/18 08:06:00;;;;;;;14.63;10.57;;;;;;;;;;5071513;28;20209;-61
2021/04/18 08:08:42;;;;;;;18.23;10.70;;;;;;;;;;5070104;28;20209;-62
2021/04/18 08:11:11;;;;;;;20.63;11.10;;;;;;;;;;5071056;28;20205;-62
2021/04/18 08:13:39;;;;;;;24.50;13.73;;;;;;;;;;5071152;28;20782;-61
2021/04/18 08:16:07;;;;;;;21.83;11.13;;;;;;;;;;5072612;28;20587;-63
2021/04/18 08:18:36;;;;;;;17.63;11.23;;;;;;;;;;5071207;28;20834;-63
2021/04/18 08:21:04;;;;;;;19.33;11.03;;;;;;;;;;5072029;28;20216;-63
2021/04/18 08:23:36;;;;;;;23.60;11.43;;;;;;;;;;5071736;28;20258;-63
2021/04/18 08:26:15;;;;;;;16.87;11.13;;;;;;;;;;5072174;28;20211;-63
2021/04/18 08:29:05;;;;;;;19.83;11.60;;;;;;;;;;5061394;28;20216;-63
2021/04/18 08:31:32;;;;;;;17.63;10.67;;;;;;;;;;5051640;28;20222;-63
2021/04/18 08:34:00;;;;;;;14.77;10.20;;;;;;;;;;5052176;28;20227;-63
2021/04/18 08:36:27;;;;;;;17.27;11.53;;;;;;;;;;5052712;28;20288;-63
2021/04/18 08:39:09;;;;;;;20.70;10.73;;;;;;;;;;5052011;28;20212;-63
2021/04/18 08:41:40;;;;;;;16.30;10.77;;;;;;;;;;5051226;28;20213;-63
2021/04/18 08:44:14;;;;;;;18.77;10.70;;;;;;;;;;5051737;28;20229;-63
2021/04/18 08:46:41;;;;;;;19.40;12.10;;;;;;;;;;5051138;28;20287;-63
2021/04/18 08:49:07;;;;;;;22.73;10.77;;;;;;;;;;5051253;28;20702;-62
2021/04/18 08:51:34;;;;;;;17.27;12.17;;;;;;;;;;5051866;28;20206;-65
2021/04/18 08:54:01;;;;;;;20.77;11.70;;;;;;;;;;5060927;28;20236;-63
2021/04/18 08:56:43;;;;;;;17.07;12.00;;;;;;;;;;5070550;28;20209;-62
2021/04/18 08:59:10;;;;;;;18.27;11.10;;;;;;;;;;5071230;28;20208;-62
2021/04/18 09:01:37;;;;;;;19.00;10.83;;;;;;;;;;5073906;28;20205;-63
2021/04/18 09:04:05;;;;;;;15.23;10.67;;;;;;;;;;5074863;28;20327;-62
2021/04/18 09:06:32;;;;;;;18.13;11.20;;;;;;;;;;5074786;28;20257;-63
2021/04/18 09:08:59;;;;;;;19.90;11.33;;;;;;;;;;5074663;28;20228;-65
2021/04/18 09:11:26;;;;;;;16.17;11.10;;;;;;;;;;5075198;28;20335;-64
2021/04/18 09:13:54;;;;;;;14.40;10.70;;;;;;;;;;5074905;28;20225;-63
2021/04/18 09:16:25;;;;;;;16.43;11.43;;;;;;;;;;5075223;28;20586;-63
2021/04/18 09:18:51;;;;;;;15.33;10.03;;;;;;;;;;5074744;28;20212;-62
2021/04/18 09:21:18;;;;;;;21.93;11.17;;;;;;;;;;5074529;28;20238;-63
2021/04/18 09:23:57;;;;;;;19.07;11.30;;;;;;;;;;5074634;28;20225;-64
2021/04/18 09:26:24;;;;;;;16.77;11.33;;;;;;;;;;5074327;28;20206;-63
2021/04/18 09:29:06;;;;;;;22.97;12.83;;;;;;;;;;5074410;28;20586;-64
2021/04/18 09:31:34;;;;;;;16.57;11.17;;;;;;;;;;5054392;28;20206;-65
2021/04/18 09:34:04;;;;;;;17.97;12.20;;;;;;;;;;5054264;28;20251;-65
2021/04/18 09:36:30;;;;;;;21.07;11.37;;;;;;;;;;5054747;28;20257;-66
2021/04/18 09:38:58;;;;;;;17.37;10.80;;;;;;;;;;5054427;28;20549;-66
2021/04/18 09:41:26;;;;;;;16.27;10.30;;;;;;;;;;5054455;28;20218;-65
2021/04/18 09:43:56;;;;;;;15.00;10.57;;;;;;;;;;5054179;28;20222;-66
2021/04/18 09:46:24;;;;;;;16.23;12.33;;;;;;;;;;5053520;28;20221;-65
2021/04/18 09:48:58;;;;;;;17.87;11.57;;;;;;;;;;5054210;28;20268;-66
2021/04/18 09:51:25;;;;;;;20.83;10.40;;;;;;;;;;5054461;28;20206;-65
2021/04/18 09:54:01;;;;;;;24.73;11.43;;;;;;;;;;5054230;28;20232;-65
2021/04/18 09:56:27;;;;;;;20.77;12.00;;;;;;;;;;5054143;28;20215;-67
2021/04/18 09:58:54;;;;;;;16.07;11.60;;;;;;;;;;5054097;28;20211;-66
2021/04/18 10:01:25;;;;;;;19.93;12.33;;;;;;;;;;5053355;28;20230;-66
2021/04/18 10:03:52;;;;;;;18.77;10.77;;;;;;;;;;5053643;28;20759;-64
2021/04/18 10:06:20;;;;;;;15.50;10.20;;;;;;;;;;5053622;28;20211;-64
2021/04/18 10:08:56;;;;;;;20.80;12.57;;;;;;;;;;5053980;28;20621;-64
2021/04/18 10:11:22;;;;;;;16.73;10.63;;;;;;;;;;5053818;28;20218;-64
2021/04/18 10:13:50;;;;;;;17.10;11.30;;;;;;;;;;5052885;28;20225;-65
2021/04/18 10:16:17;;;;;;;15.53;10.60;;;;;;;;;;5054051;28;20209;-68
2021/04/18 10:18:59;;;;;;;19.00;11.40;;;;;;;;;;5053710;28;20291;-66
2021/04/18 10:21:26;;;;;;;19.57;11.27;;;;;;;;;;5053800;28;20215;-65
2021/04/18 10:23:53;;;;;;;19.63;10.57;;;;;;;;;;5053308;28;20282;-63
2021/04/18 10:26:20;;;;;;;21.83;11.60;;;;;;;;;;5053857;28;20220;-62
2021/04/18 10:28:47;;;;;;;17.60;10.97;;;;;;;;;;5054027;28;20222;-63
2021/04/18 10:31:14;;;;;;;18.93;10.77;;;;;;;;;;5053973;28;20215;-63
2021/04/18 10:33:40;;;;;;;13.77;11.03;;;;;;;;;;5053704;28;20239;-62
2021/04/18 10:36:07;;;;;;;17.40;11.43;;;;;;;;;;5053798;28;20207;-63
2021/04/18 10:38:35;;;;;;;17.90;11.10;;;;;;;;;;5054138;28;20243;-62
2021/04/18 10:41:01;;;;;;;17.93;11.73;;;;;;;;;;5053894;28;20827;-62
2021/04/18 10:43:28;;;;;;;20.80;11.97;;;;;;;;;;5053496;28;20208;-62
2021/04/18 10:45:54;;;;;;;18.53;11.27;;;;;;;;;;5053715;28;20213;-62
2021/04/18 10:48:21;;;;;;;15.53;10.30;;;;;;;;;;5053093;28;20592;-63
2021/04/18 10:50:48;;;;;;;16.97;11.50;;;;;;;;;;5053226;28;20221;-63
2021/04/18 10:53:14;;;;;;;20.83;11.60;;;;;;;;;;5053216;28;20259;-64
2021/04/18 10:55:42;;;;;;;16.43;10.90;;;;;;;;;;5053530;28;20209;-63
2021/04/18 10:58:09;;;;;;;18.30;11.67;;;;;;;;;;5052939;28;20769;-64
2021/04/18 11:00:35;;;;;;;15.53;11.33;;;;;;;;;;5053741;28;20215;-66
2021/04/18 11:03:02;;;;;;;17.33;10.73;;;;;;;;;;5053798;28;20217;-65
2021/04/18 11:05:28;;;;;;;16.20;11.73;;;;;;;;;;5053001;28;20229;-67
2021/04/18 11:07:55;;;;;;;15.77;11.03;;;;;;;;;;5053110;28;20202;-64
2021/04/18 11:10:21;;;;;;;16.07;11.63;;;;;;;;;;5053306;28;20233;-65
2021/04/18 11:12:49;;;;;;;15.20;11.37;;;;;;;;;;5052922;28;20206;-64
2021/04/18 11:15:15;;;;;;;17.50;10.00;;;;;;;;;;5052791;28;20221;-67
2021/04/18 11:17:42;;;;;;;16.40;10.43;;;;;;;;;;5052883;28;20210;-67
2021/04/18 11:20:11;;;;;;;15.57;10.53;;;;;;;;;;5052538;28;20622;-65
2021/04/18 11:22:38;;;;;;;14.20;9.37;;;;;;;;;;5052708;28;20210;-64
2021/04/18 11:25:06;;;;;;;19.10;11.33;;;;;;;;;;5051616;28;20225;-65
2021/04/18 11:27:32;;;;;;;15.27;10.23;;;;;;;;;;5052515;28;20340;-65
2021/04/18 11:30:00;;;;;;;15.53;11.23;;;;;;;;;;5052468;28;20230;-66
2021/04/18 11:32:27;;;;;;;18.03;12.50;;;;;;;;;;5052713;28;20205;-65
2021/04/18 11:34:55;;;;;;;15.50;10.93;;;;;;;;;;5051859;28;20236;-65
2021/04/18 11:37:21;;;;;;;18.00;11.87;;;;;;;;;;5050960;28;20272;-64
2021/04/18 11:39:48;;;;;;;17.27;11.90;;;;;;;;;;5052442;28;20198;-63
2021/04/18 11:42:14;;;;;;;19.50;13.20;;;;;;;;;;5051913;28;20220;-63
2021/04/18 11:44:41;;;;;;;20.27;11.57;;;;;;;;;;5052004;28;20230;-62
2021/04/18 11:47:08;;;;;;;18.60;12.20;;;;;;;;;;5051473;28;20212;-64
2021/04/18 11:49:35;;;;;;;17.97;11.93;;;;;;;;;;5052032;28;20705;-63
2021/04/18 11:52:01;;;;;;;20.93;12.43;;;;;;;;;;5052480;28;20213;-63
2021/04/18 11:54:28;;;;;;;21.17;12.63;;;;;;;;;;5051779;28;20229;-65
2021/04/18 11:56:55;;;;;;;17.20;11.97;;;;;;;;;;5051879;28;20202;-63
2021/04/18 11:59:21;;;;;;;15.77;12.10;;;;;;;;;;5051941;28;20202;-64
2021/04/18 12:01:48;;;;;;;18.83;10.77;;;;;;;;;;5051851;28;20213;-64
2021/04/18 12:04:15;;;;;;;14.47;9.83;;;;;;;;;;5051441;28;20225;-63
2021/04/18 12:06:42;;;;;;;14.93;9.97;;;;;;;;;;5052391;28;20240;-64
2021/04/18 12:09:08;;;;;;;18.20;9.73;;;;;;;;;;5051936;28;20608;-63
2021/04/18 12:11:35;;;;;;;15.47;9.90;;;;;;;;;;5051793;28;20680;-63
2021/04/18 12:14:01;;;;;;;14.37;9.80;;;;;;;;;;5051586;28;20653;-63
2021/04/18 12:16:28;;;;;;;12.67;9.50;;;;;;;;;;5051743;28;20271;-62
2021/04/18 12:18:54;;;;;;;13.00;9.67;;;;;;;;;;5051765;28;20808;-62
2021/04/18 12:21:22;;;;;;;15.60;10.10;;;;;;;;;;5052291;28;20570;-66
2021/04/18 12:23:48;;;;;;;16.00;10.47;;;;;;;;;;5051475;28;20230;-62
2021/04/18 12:26:15;;;;;;;16.40;10.83;;;;;;;;;;5051702;28;20216;-65
2021/04/18 12:28:41;;;;;;;18.47;11.63;;;;;;;;;;5051119;28;20214;-64
2021/04/18 12:31:08;;;;;;;18.43;10.23;;;;;;;;;;5052180;28;20230;-65
2021/04/18 12:33:35;;;;;;;17.27;9.97;;;;;;;;;;5051985;28;20234;-64
2021/04/18 12:36:01;;;;;;;15.37;10.73;;;;;;;;;;5050860;28;20206;-64
2021/04/18 12:38:29;;;;;;;15.87;10.47;;;;;;;;;;5050815;28;20264;-65
2021/04/18 12:40:55;;;;;;;18.90;10.67;;;;;;;;;;5051018;28;20224;-67
2021/04/18 12:43:22;;;;;;;14.07;10.13;;;;;;;;;;5051432;28;20220;-66
2021/04/18 12:45:48;;;;;;;16.13;11.30;;;;;;;;;;5052327;28;20229;-66
2021/04/18 12:48:15;;;;;;;14.80;8.33;;;;;;;;;;5051563;28;20214;-65
2021/04/18 12:50:41;;;;;;;13.83;9.70;;;;;;;;;;5051199;28;20371;-65
2021/04/18 12:53:08;;;;;;;11.83;9.13;;;;;;;;;;5052093;28;20210;-64
2021/04/18 12:55:36;;;;;;;13.83;8.70;;;;;;;;;;5052873;28;20719;-64
2021/04/18 12:58:02;;;;;;;14.70;8.63;;;;;;;;;;5051421;28;20222;-65
2021/04/18 13:00:29;;;;;;;15.43;8.70;;;;;;;;;;5050867;28;20811;-64
2021/04/18 13:02:56;;;;;;;11.23;9.23;;;;;;;;;;5050514;28;20213;-64
2021/04/18 13:05:23;;;;;;;14.07;8.93;;;;;;;;;;5051260;28;20241;-62
2021/04/18 13:07:49;;;;;;;13.73;9.60;;;;;;;;;;5050732;28;20210;-65
2021/04/18 13:10:16;;;;;;;13.23;9.00;;;;;;;;;;5050957;28;20229;-64
2021/04/18 13:12:43;;;;;;;14.27;9.67;;;;;;;;;;5050893;28;20214;-62
2021/04/18 13:15:11;;;;;;;14.50;9.67;;;;;;;;;;5050606;28;20257;-63
2021/04/18 13:17:38;;;;;;;13.97;10.13;;;;;;;;;;5051125;28;20201;-66
2021/04/18 13:20:05;;;;;;;20.23;10.37;;;;;;;;;;5051250;28;20203;-64
2021/04/18 13:22:32;;;;;;;13.60;9.30;;;;;;;;;;5049905;28;20280;-64
2021/04/18 13:24:58;;;;;;;16.70;10.23;;;;;;;;;;5050769;28;20228;-65
2021/04/18 13:27:25;;;;;;;17.63;10.70;;;;;;;;;;5050677;28;20668;-64
2021/04/18 13:29:52;;;;;;;17.00;10.80;;;;;;;;;;5050342;28;20233;-65
2021/04/18 13:32:19;;;;;;;16.53;10.50;;;;;;;;;;5050794;28;20209;-64
2021/04/18 13:34:45;;;;;;;13.97;10.00;;;;;;;;;;5050644;28;20229;-63
2021/04/18 13:37:12;;;;;;;16.50;9.80;;;;;;;;;;5050657;28;20212;-63
2021/04/18 13:39:39;;;;;;;17.83;10.77;;;;;;;;;;5050591;28;20205;-63
2021/04/18 13:42:05;;;;;;;15.80;9.77;;;;;;;;;;5050998;28;20575;-63
2021/04/18 13:44:32;;;;;;;16.30;10.53;;;;;;;;;;5050610;28;20236;-63
2021/04/18 13:46:59;;;;;;;13.07;9.53;;;;;;;;;;5051055;28;20208;-63
2021/04/18 13:49:26;;;;;;;11.53;9.03;;;;;;;;;;5054591;28;20223;-63
2021/04/18 13:51:53;;;;;;;15.13;9.40;;;;;;;;;;5054325;28;20212;-65
2021/04/18 13:54:19;;;;;;;13.73;9.67;;;;;;;;;;5054067;28;20774;-63
2021/04/18 13:56:46;;;;;;;14.33;9.77;;;;;;;;;;5054434;28;20209;-63
2021/04/18 13:59:12;;;;;;;10.67;8.60;;;;;;;;;;5054162;28;20292;-63
2021/04/18 14:01:39;;;;;;;12.87;8.40;;;;;;;;;;5054498;28;20202;-63
2021/04/18 14:04:07;;;;;;;11.47;8.50;;;;;;;;;;5054317;28;20566;-63
2021/04/18 14:06:34;;;;;;;16.13;8.17;;;;;;;;;;5053180;28;20217;-62
2021/04/18 14:09:00;;;;;;;11.60;8.90;;;;;;;;;;5054489;28;20202;-65
2021/04/18 14:11:27;;;;;;;12.77;8.53;;;;;;;;;;5055478;28;20293;-64
2021/04/18 14:13:54;;;;;;;12.03;7.97;;;;;;;;;;5054391;28;20352;-63
2021/04/18 14:16:20;;;;;;;10.80;8.27;;;;;;;;;;5054784;28;20674;-64
2021/04/18 14:18:47;;;;;;;16.33;8.90;;;;;;;;;;5054769;28;20204;-64
2021/04/18 14:21:14;;;;;;;11.37;8.17;;;;;;;;;;5054258;28;20577;-63
2021/04/18 14:23:41;;;;;;;10.43;8.23;;;;;;;;;;5054798;28;20229;-64
2021/04/18 14:26:08;;;;;;;10.73;8.03;;;;;;;;;;5054481;28;20216;-63